createdAt,value
2023-04-04T00:00:44.777Z,100698.19
2023-04-04T00:03:12.042Z,100696.88
2023-04-04T00:05:38.774Z,100692.84
2023-04-04T00:08:05.773Z,100694.81
2023-04-04T00:10:32.501Z,100681.81
2023-04-04T00:13:00.437Z,100682.31
2023-04-04T00:15:27.500Z,100681.25
2023-04-04T00:17:54.263Z,100677.44
2023-04-04T00:20:20.950Z,100679.56
2023-04-04T00:22:47.621Z,100678.84
2023-04-04T00:25:14.712Z,100676.56
2023-04-04T00:27:42.687Z,100679.16
2023-04-04T00:30:09.866Z,100681.13
2023-04-04T00:32:37.856Z,100670.47
2023-04-04T00:35:04.904Z,100672.63
2023-04-04T00:37:31.508Z,100668.16
2023-04-04T00:39:58.124Z,100660.75
2023-04-04T00:42:24.816Z,100646.91
2023-04-04T00:44:53.780Z,100641.00
2023-04-04T00:47:26.228Z,100646.91
2023-04-04T00:49:52.939Z,100642.63
2023-04-04T00:52:19.598Z,100635.66
2023-04-04T00:54:46.269Z,100633.59
2023-04-04T00:57:13.033Z,100634.03
2023-04-04T00:59:39.810Z,100623.16
2023-04-04T01:02:07.069Z,100628.50
2023-04-04T01:04:33.995Z,100626.44
2023-04-04T01:07:02.351Z,100628.72
2023-04-04T01:09:29.323Z,100637.50
2023-04-04T01:11:56.884Z,100641.19
2023-04-04T01:14:23.967Z,100641.66
2023-04-04T01:16:51.664Z,100636.50
2023-04-04T01:19:35.000Z,100629.75
2023-04-04T01:22:03.187Z,100633.44
2023-04-04T01:24:34.156Z,100624.00
2023-04-04T01:27:02.193Z,100622.78
2023-04-04T01:29:28.884Z,100626.06
2023-04-04T01:32:08.661Z,100619.91
2023-04-04T01:34:47.290Z,100617.06
2023-04-04T01:37:19.284Z,100610.88
2023-04-04T01:39:53.853Z,100615.41
2023-04-04T01:42:22.061Z,100620.31
2023-04-04T01:44:55.102Z,100623.97
2023-04-04T01:47:21.966Z,100639.59
2023-04-04T01:49:48.933Z,100634.44
2023-04-04T01:52:15.922Z,100626.03
2023-04-04T01:54:42.514Z,100627.47
2023-04-04T01:57:09.150Z,100628.09
2023-04-04T01:59:36.439Z,100625.63
2023-04-04T02:02:03.082Z,100620.28
2023-04-04T02:04:30.496Z,100624.00
2023-04-04T02:06:57.240Z,100627.06
2023-04-04T02:09:24.153Z,100621.53
2023-04-04T02:11:50.859Z,100607.59
2023-04-04T02:14:17.532Z,100617.03
2023-04-04T02:16:44.173Z,100610.44
2023-04-04T02:19:11.306Z,100619.91
2023-04-04T02:21:37.987Z,100610.06
2023-04-04T02:24:05.007Z,100596.09
2023-04-04T02:26:31.672Z,100598.16
2023-04-04T02:28:58.290Z,100591.19
2023-04-04T02:31:24.965Z,100585.06
2023-04-04T02:33:51.626Z,100575.59
2023-04-04T02:36:19.752Z,100573.94
2023-04-04T02:38:46.449Z,100576.19
2023-04-04T02:41:13.102Z,100574.91
2023-04-04T02:43:39.730Z,100584.59
2023-04-04T02:46:20.455Z,100585.00
2023-04-04T02:48:47.536Z,100580.84
2023-04-04T02:51:14.153Z,100589.97
2023-04-04T02:53:40.800Z,100582.56
2023-04-04T02:56:07.729Z,100574.91
2023-04-04T02:58:36.265Z,100574.72
2023-04-04T03:01:05.104Z,100569.19
2023-04-04T03:03:32.623Z,100570.59
2023-04-04T03:06:00.264Z,100567.72
2023-04-04T03:08:28.187Z,100576.31
2023-04-04T03:10:54.795Z,100570.94
2023-04-04T03:13:21.422Z,100565.59
2023-04-04T03:15:49.259Z,100563.78
2023-04-04T03:18:16.531Z,100559.09
2023-04-04T03:20:43.239Z,100557.38
2023-04-04T03:23:09.867Z,100559.91
2023-04-04T03:25:37.826Z,100558.06
2023-04-04T03:28:10.868Z,100566.47
2023-04-04T03:30:39.276Z,100566.31
2023-04-04T03:33:07.703Z,100567.34
2023-04-04T03:35:40.052Z,100568.94
2023-04-04T03:38:08.839Z,100561.53
2023-04-04T03:40:35.826Z,100561.16
2023-04-04T03:43:04.042Z,100554.53
2023-04-04T03:45:34.469Z,100559.03
2023-04-04T03:48:01.617Z,100557.03
2023-04-04T03:50:28.259Z,100548.38
2023-04-04T03:52:54.873Z,100545.44
2023-04-04T03:55:21.521Z,100536.25
2023-04-04T03:57:48.817Z,100541.97
2023-04-04T04:00:16.508Z,100536.78
2023-04-04T04:02:43.294Z,100524.53
2023-04-04T04:05:10.218Z,100537.72
2023-04-04T04:07:38.037Z,100533.69
2023-04-04T04:10:05.562Z,100529.13
2023-04-04T04:12:32.319Z,100527.13
2023-04-04T04:14:59.042Z,100517.69
2023-04-04T04:17:25.710Z,100515.84
2023-04-04T04:19:52.710Z,100518.56
2023-04-04T04:22:19.529Z,100514.44
2023-04-04T04:24:46.322Z,100516.09
2023-04-04T04:27:13.039Z,100514.25
2023-04-04T04:29:39.662Z,100521.22
2023-04-04T04:32:07.966Z,100518.97
2023-04-04T04:34:35.741Z,100511.13
2023-04-04T04:37:03.948Z,100520.41
2023-04-04T04:39:30.542Z,100514.88
2023-04-04T04:41:58.489Z,100517.31
2023-04-04T04:44:25.399Z,100514.19
2023-04-04T04:46:53.377Z,100517.06
2023-04-04T04:49:20.319Z,100520.50
2023-04-04T04:51:47.480Z,100514.25
2023-04-04T04:54:14.125Z,100508.91
2023-04-04T04:56:40.774Z,100509.72
2023-04-04T04:59:09.066Z,100509.72
2023-04-04T05:01:36.219Z,100514.03
2023-04-04T05:04:03.295Z,100518.63
2023-04-04T05:06:32.267Z,100515.75
2023-04-04T05:09:00.210Z,100513.84
2023-04-04T05:11:28.512Z,100518.69
2023-04-04T05:13:55.265Z,100513.72
2023-04-04T05:16:23.214Z,100516.22
2023-04-04T05:18:49.911Z,100523.19
2023-04-04T05:21:16.855Z,100517.44
2023-04-04T05:23:45.180Z,100522.16
2023-04-04T05:26:11.858Z,100527.78
2023-04-04T05:28:38.548Z,100524.41
2023-04-04T05:31:06.456Z,100525.97
2023-04-04T05:33:33.135Z,100519.81
2023-04-04T05:36:02.068Z,100516.84
2023-04-04T05:38:30.532Z,100518.88
2023-04-04T05:40:57.110Z,100521.16
2023-04-04T05:43:24.981Z,100512.09
2023-04-04T05:45:51.610Z,100512.31
2023-04-04T05:48:18.284Z,100512.69
2023-04-04T05:50:46.116Z,100506.06
2023-04-04T05:53:12.764Z,100507.91
2023-04-04T05:55:39.460Z,100509.97
2023-04-04T05:58:06.088Z,100506.75
2023-04-04T06:00:34.081Z,100511.63
2023-04-04T06:03:01.621Z,100512.84
2023-04-04T06:05:28.381Z,100504.22
2023-04-04T06:07:55.108Z,100506.94
2023-04-04T06:10:21.791Z,100509.00
2023-04-04T06:12:48.387Z,100519.47
2023-04-04T06:15:15.019Z,100514.50
2023-04-04T06:17:41.754Z,100516.31
2023-04-04T06:20:09.000Z,100512.03
2023-04-04T06:22:35.605Z,100518.16
2023-04-04T06:25:04.259Z,100519.84
2023-04-04T06:27:30.852Z,100512.22
2023-04-04T06:29:57.540Z,100512.94
2023-04-04T06:32:24.287Z,100517.34
2023-04-04T06:34:51.056Z,100512.00
2023-04-04T06:37:17.768Z,100517.84
2023-04-04T06:39:44.520Z,100533.31
2023-04-04T06:42:12.646Z,100525.56
2023-04-04T06:44:39.308Z,100533.56
2023-04-04T06:47:06.469Z,100554.41
2023-04-04T06:49:33.520Z,100560.19
2023-04-04T06:52:00.773Z,100564.78
2023-04-04T06:54:27.428Z,100572.84
2023-04-04T06:56:54.368Z,100580.09
2023-04-04T06:59:21.036Z,100576.72
2023-04-04T07:01:48.138Z,100580.00
2023-04-04T07:04:15.850Z,100598.66
2023-04-04T07:06:42.534Z,100593.06
2023-04-04T07:09:18.541Z,100599.34
2023-04-04T07:11:57.036Z,100604.16
2023-04-04T07:14:26.622Z,100600.38
2023-04-04T07:16:53.509Z,100609.28
2023-04-04T07:19:20.533Z,100600.19
2023-04-04T07:21:47.125Z,100604.47
2023-04-04T07:24:13.848Z,100611.38
2023-04-04T07:26:40.968Z,100608.13
2023-04-04T07:29:09.354Z,100608.28
2023-04-04T07:31:36.015Z,100616.97
2023-04-04T07:34:03.792Z,100618.25
2023-04-04T07:36:30.635Z,100608.41
2023-04-04T07:38:57.360Z,100611.69
2023-04-04T07:41:25.314Z,100611.09
2023-04-04T07:43:52.441Z,100609.56
2023-04-04T07:46:21.128Z,100611.97
2023-04-04T07:48:48.123Z,100603.44
2023-04-04T07:51:15.615Z,100607.41
2023-04-04T07:53:42.406Z,100605.09
2023-04-04T07:56:09.107Z,100622.91
2023-04-04T07:58:37.901Z,100609.09
2023-04-04T08:01:04.613Z,100603.75
2023-04-04T08:03:32.267Z,100612.66
2023-04-04T08:05:59.077Z,100608.66
2023-04-04T08:08:26.133Z,100605.06
2023-04-04T08:10:52.945Z,100605.22
2023-04-04T08:13:20.757Z,100595.47
2023-04-04T08:15:47.421Z,100593.34
2023-04-04T08:18:15.807Z,100598.06
2023-04-04T08:20:42.659Z,100597.81
2023-04-04T08:23:09.785Z,100604.94
2023-04-04T08:25:36.500Z,100602.88
2023-04-04T08:28:06.243Z,100599.72
2023-04-04T08:30:33.332Z,100602.56
2023-04-04T08:33:00.055Z,100602.66
2023-04-04T08:35:28.392Z,100614.88
2023-04-04T08:37:56.412Z,100608.53
2023-04-04T08:40:23.433Z,100609.44
2023-04-04T08:42:51.654Z,100606.53
2023-04-04T08:45:19.478Z,100611.78
2023-04-04T08:47:50.595Z,100610.63
2023-04-04T08:50:19.280Z,100604.09
2023-04-04T08:52:47.104Z,100596.09
2023-04-04T08:55:14.273Z,100603.59
2023-04-04T08:57:41.050Z,100599.84
2023-04-04T09:00:09.061Z,100589.06
2023-04-04T09:02:53.509Z,100597.72
2023-04-04T09:05:22.368Z,100584.53
2023-04-04T09:07:51.114Z,100589.75
2023-04-04T09:10:17.993Z,100582.41
2023-04-04T09:12:48.904Z,100581.25
2023-04-04T09:15:16.214Z,100588.94
2023-04-04T09:17:44.551Z,100579.25
2023-04-04T09:20:34.550Z,100583.34
2023-04-04T09:23:02.953Z,100586.41
2023-04-04T09:25:29.722Z,100591.50
2023-04-04T09:27:58.316Z,100595.44
2023-04-04T09:30:25.348Z,100594.13
2023-04-04T09:32:53.278Z,100592.50
2023-04-04T09:35:20.445Z,100583.50
2023-04-04T09:37:47.204Z,100583.22
2023-04-04T09:40:14.344Z,100580.00
2023-04-04T09:42:41.353Z,100585.97
2023-04-04T09:45:10.556Z,100577.19
2023-04-04T09:47:44.155Z,100573.19
2023-04-04T09:50:22.961Z,100570.75
2023-04-04T09:52:51.669Z,100573.00
2023-04-04T09:55:18.860Z,100566.53
2023-04-04T09:57:47.422Z,100557.31
2023-04-04T10:00:21.409Z,100559.50
2023-04-04T10:02:49.478Z,100563.28
2023-04-04T10:05:17.252Z,100560.31
2023-04-04T10:07:44.825Z,100562.81
2023-04-04T10:10:11.673Z,100561.47
2023-04-04T10:12:40.209Z,100570.44
2023-04-04T10:15:08.540Z,100565.59
2023-04-04T10:17:42.207Z,100565.03
2023-04-04T10:20:11.657Z,100565.03
2023-04-04T10:22:39.022Z,100564.47
2023-04-04T10:25:08.722Z,100567.50
2023-04-04T10:27:38.014Z,100580.72
2023-04-04T10:30:05.181Z,100570.94
2023-04-04T10:32:49.486Z,100579.59
2023-04-04T10:35:17.861Z,100564.44
2023-04-04T10:37:52.763Z,100565.53
2023-04-04T10:40:23.645Z,100574.72
2023-04-04T10:42:51.095Z,100573.13
2023-04-04T10:45:21.513Z,100564.59
2023-04-04T10:47:49.085Z,100568.88
2023-04-04T10:50:15.975Z,100564.03
2023-04-04T10:52:44.769Z,100563.00
2023-04-04T10:55:15.005Z,100563.53
2023-04-04T10:57:47.794Z,100566.25
2023-04-04T11:00:19.505Z,100558.75
2023-04-04T11:03:02.098Z,100555.59
2023-04-04T11:05:41.122Z,100559.09
2023-04-04T11:08:12.364Z,100553.97
2023-04-04T11:10:42.370Z,100550.22
2023-04-04T11:13:30.658Z,100555.91
2023-04-04T11:16:07.590Z,100556.22
2023-04-04T11:18:44.939Z,100555.28
2023-04-04T11:21:26.272Z,100551.00
2023-04-04T11:23:59.172Z,100559.13
2023-04-04T11:26:26.324Z,100568.31
2023-04-04T11:28:56.366Z,100558.31
2023-04-04T11:31:25.989Z,100559.34
2023-04-04T11:34:15.453Z,100567.22
2023-04-04T11:36:43.237Z,100568.84
2023-04-04T11:39:24.190Z,100571.50
2023-04-04T11:42:16.077Z,100575.88
2023-04-04T11:45:03.410Z,100559.00
2023-04-04T11:47:30.793Z,100560.13
2023-04-04T11:49:58.889Z,100552.53
2023-04-04T11:52:25.614Z,100549.38
2023-04-04T11:54:52.751Z,100548.53
2023-04-04T11:57:21.355Z,100550.22
2023-04-04T11:59:52.466Z,100547.81
2023-04-04T12:02:22.093Z,100544.56
2023-04-04T12:04:51.654Z,100541.84
2023-04-04T12:07:18.570Z,100542.44
2023-04-04T12:09:45.786Z,100542.44
2023-04-04T12:12:19.946Z,100552.16
2023-04-04T12:14:48.264Z,100537.88
2023-04-04T12:17:16.453Z,100534.94
2023-04-04T12:19:44.409Z,100541.53
2023-04-04T12:22:11.110Z,100530.69
2023-04-04T12:24:37.959Z,100536.13
2023-04-04T12:27:06.590Z,100529.38
2023-04-04T12:29:37.696Z,100527.75
2023-04-04T12:32:05.980Z,100527.16
2023-04-04T12:34:34.327Z,100527.72
2023-04-04T12:37:02.683Z,100520.94
2023-04-04T12:39:31.554Z,100520.34
2023-04-04T12:42:03.951Z,100518.19
2023-04-04T12:44:39.454Z,100515.03
2023-04-04T12:47:07.468Z,100506.19
2023-04-04T12:49:50.405Z,100512.16
2023-04-04T12:52:20.690Z,100510.81
2023-04-04T12:54:59.203Z,100503.00
2023-04-04T12:57:39.420Z,100500.56
2023-04-04T13:00:09.699Z,100497.63
2023-04-04T13:02:38.173Z,100501.66
2023-04-04T13:05:07.813Z,100502.47
2023-04-04T13:07:43.423Z,100500.59
2023-04-04T13:10:15.011Z,100498.91
2023-04-04T13:12:59.680Z,100503.25
2023-04-04T13:15:49.297Z,100502.16
2023-04-04T13:18:20.217Z,100499.47
2023-04-04T13:20:46.818Z,100491.56
2023-04-04T13:23:16.378Z,100488.66
2023-04-04T13:25:44.646Z,100489.19
2023-04-04T13:28:12.923Z,100494.88
2023-04-04T13:30:43.617Z,100489.22
2023-04-04T13:33:10.579Z,100482.19
2023-04-04T13:35:38.299Z,100485.44
2023-04-04T13:38:05.134Z,100483.81
2023-04-04T13:40:33.529Z,100475.69
2023-04-04T13:43:00.131Z,100474.06
2023-04-04T13:45:28.161Z,100469.97
2023-04-04T13:47:54.845Z,100467.00
2023-04-04T13:50:24.177Z,100469.72
2023-04-04T13:52:54.111Z,100473.53
2023-04-04T13:55:21.907Z,100463.50
2023-04-04T13:57:49.886Z,100463.22
2023-04-04T14:00:17.361Z,100463.75
2023-04-04T14:02:44.986Z,100467.56
2023-04-04T14:05:11.944Z,100461.59
2023-04-04T14:07:38.767Z,100465.41
2023-04-04T14:10:07.330Z,100460.78
2023-04-04T14:12:35.590Z,100463.78
2023-04-04T14:15:03.588Z,100470.78
2023-04-04T14:17:30.575Z,100464.31
2023-04-04T14:19:57.312Z,100466.47
2023-04-04T14:22:24.193Z,100456.72
2023-04-04T14:24:51.149Z,100461.88
2023-04-04T14:27:18.953Z,100455.91
2023-04-04T14:29:45.597Z,100459.44
2023-04-04T14:32:13.677Z,100462.66
2023-04-04T14:34:40.493Z,100462.13
2023-04-04T14:37:07.435Z,100467.56
2023-04-04T14:39:34.222Z,100464.31
2023-04-04T14:42:00.895Z,100466.19
2023-04-04T14:44:29.336Z,100457.00
2023-04-04T14:46:56.767Z,100458.38
2023-04-04T14:49:24.158Z,100467.03
2023-04-04T14:51:52.105Z,100464.84
2023-04-04T14:54:18.984Z,100456.72
2023-04-04T14:56:45.744Z,100460.53
2023-04-04T14:59:13.595Z,100455.66
2023-04-04T15:01:40.440Z,100455.09
2023-04-04T15:04:07.831Z,100452.88
2023-04-04T15:06:38.013Z,100446.28
2023-04-04T15:09:08.767Z,100445.16
2023-04-04T15:11:36.128Z,100437.47
2023-04-04T15:14:04.432Z,100440.22
2023-04-04T15:16:33.234Z,100433.50
2023-04-04T15:19:02.188Z,100435.09
2023-04-04T15:21:28.924Z,100442.84
2023-04-04T15:23:57.201Z,100433.41
2023-04-04T15:26:23.865Z,100431.53
2023-04-04T15:28:51.898Z,100420.97
2023-04-04T15:31:18.630Z,100417.41
2023-04-04T15:33:45.441Z,100421.19
2023-04-04T15:36:12.139Z,100416.28
2023-04-04T15:38:39.744Z,100415.31
2023-04-04T15:41:08.807Z,100410.66
2023-04-04T15:43:38.494Z,100409.72
2023-04-04T15:46:06.795Z,100407.59
2023-04-04T15:48:35.824Z,100415.84
2023-04-04T15:51:04.488Z,100408.81
2023-04-04T15:53:31.514Z,100418.03
2023-04-04T15:55:59.210Z,100417.94
2023-04-04T15:58:26.472Z,100413.31
2023-04-04T16:00:53.274Z,100414.84
2023-04-04T16:03:20.650Z,100405.06
2023-04-04T16:05:49.556Z,100411.69
2023-04-04T16:08:17.552Z,100408.59
2023-04-04T16:10:44.803Z,100426.72
2023-04-04T16:13:13.235Z,100421.19
2023-04-04T16:15:40.088Z,100426.06
2023-04-04T16:18:07.232Z,100415.34
2023-04-04T16:20:34.551Z,100419.03
2023-04-04T16:23:01.409Z,100425.25
2023-04-04T16:25:28.141Z,100427.38
2023-04-04T16:27:54.800Z,100420.94
2023-04-04T16:30:21.515Z,100423.41
2023-04-04T16:32:49.791Z,100426.88
2023-04-04T16:35:16.751Z,100431.28
2023-04-04T16:37:43.453Z,100429.66
2023-04-04T16:40:10.633Z,100435.03
2023-04-04T16:42:37.396Z,100437.94
2023-04-04T16:45:05.609Z,100432.84
2023-04-04T16:47:32.364Z,100439.94
2023-04-04T16:50:00.231Z,100435.31
2023-04-04T16:52:26.878Z,100441.78
2023-04-04T16:54:56.319Z,100438.84
2023-04-04T16:57:23.107Z,100439.78
2023-04-04T16:59:49.791Z,100440.44
2023-04-04T17:02:17.576Z,100450.53
2023-04-04T17:04:44.849Z,100439.88
2023-04-04T17:07:11.680Z,100444.53
2023-04-04T17:09:39.797Z,100439.31
2023-04-04T17:12:07.694Z,100433.00
2023-04-04T17:14:34.467Z,100441.38
2023-04-04T17:17:01.417Z,100442.16
2023-04-04T17:19:31.586Z,100432.59
2023-04-04T17:21:58.829Z,100440.75
2023-04-04T17:24:27.013Z,100436.38
2023-04-04T17:26:54.570Z,100438.94
2023-04-04T17:29:26.446Z,100441.22
2023-04-04T17:31:55.719Z,100433.09
2023-04-04T17:34:23.443Z,100432.34
2023-04-04T17:36:52.713Z,100429.00
2023-04-04T17:39:20.837Z,100423.03
2023-04-04T17:41:48.120Z,100429.25
2023-04-04T17:44:21.543Z,100431.16
2023-04-04T17:46:49.269Z,100426.84
2023-04-04T17:49:20.934Z,100425.44
2023-04-04T17:51:50.162Z,100425.09
2023-04-04T17:54:17.551Z,100422.38
2023-04-04T17:56:46.806Z,100420.84
2023-04-04T17:59:16.125Z,100428.91
2023-04-04T18:01:44.347Z,100417.28
2023-04-04T18:04:11.239Z,100423.59
2023-04-04T18:06:40.466Z,100418.44
2023-04-04T18:09:09.282Z,100414.75
2023-04-04T18:11:36.812Z,100415.34
2023-04-04T18:14:05.426Z,100410.78
2023-04-04T18:16:39.522Z,100407.88
2023-04-04T18:19:08.864Z,100405.56
2023-04-04T18:21:36.853Z,100407.09
2023-04-04T18:24:05.304Z,100411.66
2023-04-04T18:26:32.142Z,100413.13
2023-04-04T18:28:58.954Z,100401.88
2023-04-04T18:31:28.966Z,100389.78
2023-04-04T18:33:57.971Z,100398.25
2023-04-04T18:36:24.992Z,100391.22
2023-04-04T18:38:53.022Z,100386.31
2023-04-04T18:41:20.420Z,100399.78
2023-04-04T18:43:48.482Z,100391.25
2023-04-04T18:46:15.871Z,100388.88
2023-04-04T18:48:44.016Z,100393.81
2023-04-04T18:51:10.875Z,100389.91
2023-04-04T18:53:37.503Z,100397.53
2023-04-04T18:56:04.132Z,100399.63
2023-04-04T18:58:32.323Z,100401.34
2023-04-04T19:01:00.764Z,100405.91
2023-04-04T19:03:28.154Z,100415.50
2023-04-04T19:05:56.217Z,100421.09
2023-04-04T19:08:24.165Z,100424.75
2023-04-04T19:10:51.361Z,100430.09
2023-04-04T19:13:18.390Z,100423.91
2023-04-04T19:15:45.198Z,100433.16
2023-04-04T19:18:12.038Z,100423.22
2023-04-04T19:20:42.091Z,100420.16
2023-04-04T19:23:09.080Z,100410.66
2023-04-04T19:25:35.848Z,100424.13
2023-04-04T19:28:02.892Z,100421.66
2023-04-04T19:30:45.203Z,100419.00
2023-04-04T19:33:13.808Z,100409.13
2023-04-04T19:35:59.059Z,100414.69
2023-04-04T19:38:32.198Z,100411.34
2023-04-04T19:41:13.461Z,100410.94
2023-04-04T19:43:42.291Z,100415.09
2023-04-04T19:46:11.473Z,100413.72
2023-04-04T19:48:46.603Z,100409.06
2023-04-04T19:51:21.222Z,100407.72
2023-04-04T19:53:52.209Z,100405.50
2023-04-04T19:56:22.713Z,100399.88
2023-04-04T19:58:57.735Z,100402.47
2023-04-04T20:01:29.726Z,100397.31
2023-04-04T20:04:01.672Z,100399.28
2023-04-04T20:06:31.512Z,100403.28
2023-04-04T20:09:00.138Z,100400.31
2023-04-04T20:11:30.870Z,100402.84
2023-04-04T20:14:03.739Z,100381.59
2023-04-04T20:16:30.868Z,100389.25
2023-04-04T20:19:02.665Z,100386.34
2023-04-04T20:21:31.985Z,100382.31
2023-04-04T20:24:08.413Z,100382.81
2023-04-04T20:26:37.004Z,100381.25
2023-04-04T20:29:42.690Z,100369.41
2023-04-04T20:32:09.884Z,100366.63
2023-04-04T20:34:50.698Z,100367.94
2023-04-04T20:37:26.465Z,100365.16
2023-04-04T20:40:01.482Z,100371.44
2023-04-04T20:42:29.341Z,100372.16
2023-04-04T20:44:59.232Z,100376.41
2023-04-04T20:47:49.172Z,100372.25
2023-04-04T20:50:19.219Z,100374.34
2023-04-04T20:53:04.901Z,100366.22
2023-04-04T20:55:33.935Z,100355.22
2023-04-04T20:58:29.271Z,100359.13
2023-04-04T21:01:00.829Z,100361.97
2023-04-04T21:03:35.618Z,100365.75
2023-04-04T21:06:16.632Z,100363.06
2023-04-04T21:08:48.683Z,100359.66
2023-04-04T21:11:29.084Z,100360.50
2023-04-04T21:13:57.009Z,100355.59
2023-04-04T21:16:27.873Z,100366.53
2023-04-04T21:18:58.439Z,100365.41
2023-04-04T21:21:26.287Z,100368.25
2023-04-04T21:24:00.617Z,100370.47
2023-04-04T21:26:41.049Z,100373.91
2023-04-04T21:29:26.359Z,100373.03
2023-04-04T21:31:55.210Z,100375.66
2023-04-04T21:34:25.040Z,100373.16
2023-04-04T21:36:57.346Z,100366.53
2023-04-04T21:39:32.065Z,100380.28
2023-04-04T21:42:01.615Z,100372.28
2023-04-04T21:44:28.790Z,100382.25
2023-04-04T21:46:55.717Z,100372.81
2023-04-04T21:49:23.292Z,100366.66
2023-04-04T21:51:51.672Z,100372.81
2023-04-04T21:54:18.782Z,100375.44
2023-04-04T21:56:47.793Z,100365.53
2023-04-04T21:59:14.758Z,100362.66
2023-04-04T22:01:42.462Z,100363.97
2023-04-04T22:04:09.198Z,100355.53
2023-04-04T22:06:36.439Z,100357.75
2023-04-04T22:09:05.344Z,100351.25
2023-04-04T22:11:34.433Z,100350.75
2023-04-04T22:14:04.813Z,100343.28
2023-04-04T22:16:32.321Z,100342.47
2023-04-04T22:19:01.041Z,100336.53
2023-04-04T22:21:28.168Z,100330.28
2023-04-04T22:24:00.928Z,100331.47
2023-04-04T22:26:33.810Z,100321.03
2023-04-04T22:29:02.944Z,100335.84
2023-04-04T22:31:29.942Z,100336.66
2023-04-04T22:33:58.291Z,100330.78
2023-04-04T22:36:25.380Z,100331.47
2023-04-04T22:38:58.613Z,100328.31
2023-04-04T22:41:30.275Z,100314.16
2023-04-04T22:43:57.603Z,100319.59
2023-04-04T22:46:26.039Z,100318.81
2023-04-04T22:49:05.278Z,100314.91
2023-04-04T22:51:43.658Z,100310.13
2023-04-04T22:54:13.120Z,100311.94
2023-04-04T22:56:40.518Z,100313.00
2023-04-04T22:59:07.403Z,100308.06
2023-04-04T23:01:35.158Z,100308.66
2023-04-04T23:04:03.163Z,100303.59
2023-04-04T23:06:31.278Z,100298.94
2023-04-04T23:08:59.402Z,100309.16
2023-04-04T23:11:27.547Z,100297.94
2023-04-04T23:13:54.438Z,100294.31
2023-04-04T23:16:23.583Z,100297.59
2023-04-04T23:18:50.195Z,100299.38
2023-04-04T23:21:17.998Z,100305.69
2023-04-04T23:23:44.660Z,100295.13
2023-04-04T23:26:11.419Z,100283.06
2023-04-04T23:28:38.050Z,100286.44
2023-04-04T23:31:05.196Z,100294.94
2023-04-04T23:33:32.975Z,100289.31
2023-04-04T23:35:59.735Z,100287.97
2023-04-04T23:38:27.930Z,100289.91
2023-04-04T23:40:54.736Z,100293.59
2023-04-04T23:43:21.404Z,100295.31
2023-04-04T23:45:48.111Z,100295.56
2023-04-04T23:48:14.781Z,100281.22
2023-04-04T23:50:43.199Z,100285.81
2023-04-04T23:53:11.348Z,100293.03
2023-04-04T23:55:39.296Z,100299.16
2023-04-04T23:58:06.161Z,100286.25
